sensor_id;sensor_type;location;lat;lon;timestamp;P1;durP1;ratioP1;P2;durP2;ratioP2
51654;SDS011;37732;53.106;7.030;2023-04-24T00:00:10;1.80;;;0.70;;
51654;SDS011;37732;53.106;7.030;2023-04-24T00:02:40;1.75;;;1.25;;
51654;SDS011;37732;53.106;7.030;2023-04-24T00:05:11;1.48;;;0.73;;
51654;SDS011;37732;53.106;7.030;2023-04-24T00:07:42;1.13;;;0.73;;
51654;SDS011;37732;53.106;7.030;2023-04-24T00:10:09;1.27;;;0.60;;
51654;SDS011;37732;53.106;7.030;2023-04-24T00:12:35;0.50;;;0.50;;
51654;SDS011;37732;53.106;7.030;2023-04-24T00:15:01;1.45;;;0.90;;
51654;SDS011;37732;53.106;7.030;2023-04-24T00:17:28;2.15;;;0.77;;
51654;SDS011;37732;53.106;7.030;2023-04-24T00:19:53;0.80;;;0.80;;
51654;SDS011;37732;53.106;7.030;2023-04-24T00:22:26;1.38;;;0.90;;
51654;SDS011;37732;53.106;7.030;2023-04-24T00:24:54;1.38;;;0.90;;
51654;SDS011;37732;53.106;7.030;2023-04-24T00:27:20;2.17;;;0.90;;
51654;SDS011;37732;53.106;7.030;2023-04-24T00:29:46;1.48;;;1.10;;
51654;SDS011;37732;53.106;7.030;2023-04-24T00:32:12;3.55;;;1.65;;
51654;SDS011;37732;53.106;7.030;2023-04-24T00:34:38;1.58;;;1.05;;
51654;SDS011;37732;53.106;7.030;2023-04-24T00:37:03;2.55;;;1.10;;
51654;SDS011;37732;53.106;7.030;2023-04-24T00:39:30;2.95;;;1.60;;
51654;SDS011;37732;53.106;7.030;2023-04-24T00:41:56;1.98;;;1.52;;
51654;SDS011;37732;53.106;7.030;2023-04-24T00:44:22;1.70;;;1.38;;
51654;SDS011;37732;53.106;7.030;2023-04-24T00:46:49;2.35;;;1.45;;
51654;SDS011;37732;53.106;7.030;2023-04-24T00:49:19;2.78;;;1.90;;
51654;SDS011;37732;53.106;7.030;2023-04-24T00:51:46;2.35;;;1.60;;
51654;SDS011;37732;53.106;7.030;2023-04-24T00:54:12;2.70;;;1.92;;
51654;SDS011;37732;53.106;7.030;2023-04-24T00:56:39;3.22;;;1.80;;
51654;SDS011;37732;53.106;7.030;2023-04-24T00:59:06;2.67;;;2.00;;
51654;SDS011;37732;53.106;7.030;2023-04-24T01:01:31;4.00;;;2.88;;
51654;SDS011;37732;53.106;7.030;2023-04-24T01:06:33;4.25;;;2.80;;
51654;SDS011;37732;53.106;7.030;2023-04-24T01:09:00;4.78;;;3.53;;
51654;SDS011;37732;53.106;7.030;2023-04-24T01:11:25;4.28;;;3.33;;
51654;SDS011;37732;53.106;7.030;2023-04-24T01:13:52;4.57;;;3.33;;
51654;SDS011;37732;53.106;7.030;2023-04-24T01:16:18;4.68;;;3.35;;
51654;SDS011;37732;53.106;7.030;2023-04-24T01:18:45;4.68;;;3.03;;
51654;SDS011;37732;53.106;7.030;2023-04-24T01:21:13;4.47;;;3.15;;
51654;SDS011;37732;53.106;7.030;2023-04-24T01:23:42;3.90;;;3.00;;
51654;SDS011;37732;53.106;7.030;2023-04-24T01:26:10;4.65;;;3.58;;
51654;SDS011;37732;53.106;7.030;2023-04-24T01:28:36;5.00;;;3.90;;
51654;SDS011;37732;53.106;7.030;2023-04-24T01:31:02;4.82;;;3.72;;
51654;SDS011;37732;53.106;7.030;2023-04-24T01:33:28;5.40;;;3.15;;
51654;SDS011;37732;53.106;7.030;2023-04-24T01:35:54;4.22;;;3.28;;
51654;SDS011;37732;53.106;7.030;2023-04-24T01:38:20;3.97;;;3.03;;
51654;SDS011;37732;53.106;7.030;2023-04-24T01:40:46;4.00;;;3.15;;
51654;SDS011;37732;53.106;7.030;2023-04-24T01:43:12;3.55;;;2.70;;
51654;SDS011;37732;53.106;7.030;2023-04-24T01:45:38;3.90;;;2.70;;
51654;SDS011;37732;53.106;7.030;2023-04-24T01:48:04;5.40;;;3.38;;
51654;SDS011;37732;53.106;7.030;2023-04-24T01:50:30;3.13;;;2.35;;
51654;SDS011;37732;53.106;7.030;2023-04-24T01:52:56;3.83;;;2.88;;
51654;SDS011;37732;53.106;7.030;2023-04-24T01:55:22;4.72;;;2.80;;
51654;SDS011;37732;53.106;7.030;2023-04-24T01:57:47;3.08;;;2.40;;
51654;SDS011;37732;53.106;7.030;2023-04-24T02:00:14;3.28;;;2.45;;
51654;SDS011;37732;53.106;7.030;2023-04-24T02:02:41;4.00;;;3.15;;
51654;SDS011;37732;53.106;7.030;2023-04-24T02:05:07;3.60;;;2.85;;
51654;SDS011;37732;53.106;7.030;2023-04-24T02:07:33;4.30;;;3.10;;
51654;SDS011;37732;53.106;7.030;2023-04-24T02:09:59;4.95;;;3.70;;
51654;SDS011;37732;53.106;7.030;2023-04-24T02:12:25;3.72;;;2.58;;
51654;SDS011;37732;53.106;7.030;2023-04-24T02:14:51;4.40;;;3.42;;
51654;SDS011;37732;53.106;7.030;2023-04-24T02:17:17;4.50;;;3.53;;
51654;SDS011;37732;53.106;7.030;2023-04-24T02:19:44;5.22;;;4.13;;
51654;SDS011;37732;53.106;7.030;2023-04-24T02:22:10;5.88;;;5.05;;
51654;SDS011;37732;53.106;7.030;2023-04-24T02:24:36;6.88;;;5.60;;
51654;SDS011;37732;53.106;7.030;2023-04-24T02:27:02;7.20;;;6.50;;
51654;SDS011;37732;53.106;7.030;2023-04-24T02:29:28;7.63;;;6.78;;
51654;SDS011;37732;53.106;7.030;2023-04-24T02:31:54;6.93;;;6.20;;
51654;SDS011;37732;53.106;7.030;2023-04-24T02:34:20;7.57;;;6.78;;
51654;SDS011;37732;53.106;7.030;2023-04-24T02:36:45;7.18;;;6.47;;
51654;SDS011;37732;53.106;7.030;2023-04-24T02:39:11;7.13;;;6.43;;
51654;SDS011;37732;53.106;7.030;2023-04-24T02:41:38;7.10;;;6.40;;
51654;SDS011;37732;53.106;7.030;2023-04-24T02:44:04;6.97;;;6.20;;
51654;SDS011;37732;53.106;7.030;2023-04-24T02:46:30;8.32;;;6.93;;
51654;SDS011;37732;53.106;7.030;2023-04-24T02:48:55;7.65;;;6.78;;
51654;SDS011;37732;53.106;7.030;2023-04-24T02:51:21;7.40;;;6.70;;
51654;SDS011;37732;53.106;7.030;2023-04-24T02:53:47;7.68;;;6.85;;
51654;SDS011;37732;53.106;7.030;2023-04-24T02:56:13;7.32;;;6.63;;
51654;SDS011;37732;53.106;7.030;2023-04-24T02:58:38;6.82;;;6.13;;
51654;SDS011;37732;53.106;7.030;2023-04-24T03:01:04;6.78;;;6.03;;
51654;SDS011;37732;53.106;7.030;2023-04-24T03:03:30;7.65;;;6.95;;
51654;SDS011;37732;53.106;7.030;2023-04-24T03:05:56;7.00;;;6.30;;
51654;SDS011;37732;53.106;7.030;2023-04-24T03:08:22;7.25;;;6.53;;
51654;SDS011;37732;53.106;7.030;2023-04-24T03:10:48;7.82;;;6.65;;
51654;SDS011;37732;53.106;7.030;2023-04-24T03:13:15;8.65;;;6.60;;
51654;SDS011;37732;53.106;7.030;2023-04-24T03:15:41;8.23;;;7.43;;
51654;SDS011;37732;53.106;7.030;2023-04-24T03:18:07;8.00;;;6.53;;
51654;SDS011;37732;53.106;7.030;2023-04-24T03:20:32;7.70;;;6.90;;
51654;SDS011;37732;53.106;7.030;2023-04-24T03:22:58;8.15;;;7.35;;
51654;SDS011;37732;53.106;7.030;2023-04-24T03:25:24;7.60;;;6.90;;
51654;SDS011;37732;53.106;7.030;2023-04-24T03:27:50;8.25;;;7.40;;
51654;SDS011;37732;53.106;7.030;2023-04-24T03:30:16;7.30;;;6.55;;
51654;SDS011;37732;53.106;7.030;2023-04-24T03:32:41;9.18;;;7.90;;
51654;SDS011;37732;53.106;7.030;2023-04-24T03:35:08;7.75;;;6.93;;
51654;SDS011;37732;53.106;7.030;2023-04-24T03:37:34;8.93;;;8.05;;
51654;SDS011;37732;53.106;7.030;2023-04-24T03:40:00;8.18;;;7.38;;
51654;SDS011;37732;53.106;7.030;2023-04-24T03:42:27;8.18;;;7.38;;
51654;SDS011;37732;53.106;7.030;2023-04-24T03:44:52;8.57;;;7.70;;
51654;SDS011;37732;53.106;7.030;2023-04-24T03:47:18;9.15;;;7.63;;
51654;SDS011;37732;53.106;7.030;2023-04-24T03:49:44;9.35;;;8.45;;
51654;SDS011;37732;53.106;7.030;2023-04-24T03:52:10;8.32;;;7.50;;
51654;SDS011;37732;53.106;7.030;2023-04-24T03:54:36;8.43;;;7.63;;
51654;SDS011;37732;53.106;7.030;2023-04-24T03:57:01;10.15;;;9.15;;
51654;SDS011;37732;53.106;7.030;2023-04-24T03:59:28;9.13;;;8.07;;
51654;SDS011;37732;53.106;7.030;2023-04-24T04:01:54;8.75;;;7.95;;
51654;SDS011;37732;53.106;7.030;2023-04-24T04:04:19;8.55;;;7.75;;
51654;SDS011;37732;53.106;7.030;2023-04-24T04:06:45;8.57;;;7.68;;
51654;SDS011;37732;53.106;7.030;2023-04-24T04:09:11;8.18;;;7.38;;
51654;SDS011;37732;53.106;7.030;2023-04-24T04:11:37;9.25;;;8.30;;
51654;SDS011;37732;53.106;7.030;2023-04-24T04:14:03;8.80;;;7.90;;
51654;SDS011;37732;53.106;7.030;2023-04-24T04:16:29;9.02;;;8.13;;
51654;SDS011;37732;53.106;7.030;2023-04-24T04:18:55;9.48;;;8.48;;
51654;SDS011;37732;53.106;7.030;2023-04-24T04:21:20;8.05;;;7.35;;
51654;SDS011;37732;53.106;7.030;2023-04-24T04:23:46;8.23;;;7.43;;
51654;SDS011;37732;53.106;7.030;2023-04-24T04:26:13;8.55;;;7.75;;
51654;SDS011;37732;53.106;7.030;2023-04-24T04:28:38;8.57;;;7.47;;
51654;SDS011;37732;53.106;7.030;2023-04-24T04:31:04;8.57;;;7.68;;
51654;SDS011;37732;53.106;7.030;2023-04-24T04:33:32;8.70;;;7.40;;
51654;SDS011;37732;53.106;7.030;2023-04-24T04:35:58;9.95;;;7.85;;
51654;SDS011;37732;53.106;7.030;2023-04-24T04:38:25;9.50;;;7.47;;
51654;SDS011;37732;53.106;7.030;2023-04-24T04:40:51;9.20;;;7.43;;
51654;SDS011;37732;53.106;7.030;2023-04-24T04:43:17;8.65;;;7.63;;
51654;SDS011;37732;53.106;7.030;2023-04-24T04:45:43;8.70;;;7.47;;
51654;SDS011;37732;53.106;7.030;2023-04-24T04:48:10;9.27;;;7.80;;
51654;SDS011;37732;53.106;7.030;2023-04-24T04:50:38;8.70;;;7.22;;
51654;SDS011;37732;53.106;7.030;2023-04-24T04:53:04;8.70;;;7.80;;
51654;SDS011;37732;53.106;7.030;2023-04-24T04:55:30;8.65;;;7.75;;
51654;SDS011;37732;53.106;7.030;2023-04-24T04:57:56;8.20;;;7.10;;
51654;SDS011;37732;53.106;7.030;2023-04-24T05:00:22;8.75;;;7.88;;
51654;SDS011;37732;53.106;7.030;2023-04-24T05:02:51;7.82;;;7.03;;
51654;SDS011;37732;53.106;7.030;2023-04-24T05:05:17;8.57;;;7.68;;
51654;SDS011;37732;53.106;7.030;2023-04-24T05:07:43;8.77;;;7.80;;
51654;SDS011;37732;53.106;7.030;2023-04-24T05:10:09;8.05;;;7.25;;
51654;SDS011;37732;53.106;7.030;2023-04-24T05:12:35;8.68;;;7.60;;
51654;SDS011;37732;53.106;7.030;2023-04-24T05:15:01;7.82;;;7.03;;
51654;SDS011;37732;53.106;7.030;2023-04-24T05:17:28;8.40;;;7.15;;
51654;SDS011;37732;53.106;7.030;2023-04-24T05:19:54;7.75;;;6.68;;
51654;SDS011;37732;53.106;7.030;2023-04-24T05:22:20;8.30;;;7.30;;
51654;SDS011;37732;53.106;7.030;2023-04-24T05:24:46;7.82;;;6.93;;
51654;SDS011;37732;53.106;7.030;2023-04-24T05:27:13;8.27;;;6.95;;
51654;SDS011;37732;53.106;7.030;2023-04-24T05:29:39;7.90;;;6.57;;
51654;SDS011;37732;53.106;7.030;2023-04-24T05:32:05;8.50;;;6.35;;
51654;SDS011;37732;53.106;7.030;2023-04-24T05:34:31;7.70;;;6.53;;
51654;SDS011;37732;53.106;7.030;2023-04-24T05:36:56;6.93;;;5.88;;
51654;SDS011;37732;53.106;7.030;2023-04-24T05:39:23;8.52;;;6.95;;
51654;SDS011;37732;53.106;7.030;2023-04-24T05:41:50;8.43;;;6.68;;
51654;SDS011;37732;53.106;7.030;2023-04-24T05:44:16;8.07;;;6.75;;
51654;SDS011;37732;53.106;7.030;2023-04-24T05:46:42;8.75;;;6.95;;
51654;SDS011;37732;53.106;7.030;2023-04-24T05:49:07;11.43;;;6.68;;
51654;SDS011;37732;53.106;7.030;2023-04-24T05:51:33;8.13;;;7.15;;
51654;SDS011;37732;53.106;7.030;2023-04-24T05:53:59;8.63;;;7.05;;
51654;SDS011;37732;53.106;7.030;2023-04-24T05:56:25;7.30;;;5.85;;
51654;SDS011;37732;53.106;7.030;2023-04-24T05:58:51;7.68;;;6.70;;
51654;SDS011;37732;53.106;7.030;2023-04-24T06:01:16;7.97;;;6.32;;
51654;SDS011;37732;53.106;7.030;2023-04-24T06:03:43;7.82;;;5.90;;
51654;SDS011;37732;53.106;7.030;2023-04-24T06:06:09;7.72;;;6.28;;
51654;SDS011;37732;53.106;7.030;2023-04-24T06:08:35;8.77;;;7.20;;
51654;SDS011;37732;53.106;7.030;2023-04-24T06:11:00;7.25;;;6.03;;
51654;SDS011;37732;53.106;7.030;2023-04-24T06:13:26;8.60;;;6.85;;
51654;SDS011;37732;53.106;7.030;2023-04-24T06:15:52;8.25;;;6.80;;
51654;SDS011;37732;53.106;7.030;2023-04-24T06:18:18;8.32;;;7.00;;
51654;SDS011;37732;53.106;7.030;2023-04-24T06:20:44;8.35;;;6.25;;
51654;SDS011;37732;53.106;7.030;2023-04-24T06:23:12;8.25;;;6.57;;
51654;SDS011;37732;53.106;7.030;2023-04-24T06:25:38;8.15;;;6.80;;
51654;SDS011;37732;53.106;7.030;2023-04-24T06:28:04;8.90;;;6.65;;
51654;SDS011;37732;53.106;7.030;2023-04-24T06:30:30;7.88;;;6.20;;
51654;SDS011;37732;53.106;7.030;2023-04-24T06:32:56;8.80;;;6.85;;
51654;SDS011;37732;53.106;7.030;2023-04-24T06:35:22;8.20;;;7.00;;
51654;SDS011;37732;53.106;7.030;2023-04-24T06:37:48;7.80;;;6.45;;
51654;SDS011;37732;53.106;7.030;2023-04-24T06:40:14;7.88;;;6.38;;
51654;SDS011;37732;53.106;7.030;2023-04-24T06:42:40;7.85;;;6.00;;
51654;SDS011;37732;53.106;7.030;2023-04-24T06:45:06;8.60;;;6.35;;
51654;SDS011;37732;53.106;7.030;2023-04-24T06:47:32;10.15;;;6.60;;
51654;SDS011;37732;53.106;7.030;2023-04-24T06:49:57;8.38;;;6.00;;
51654;SDS011;37732;53.106;7.030;2023-04-24T06:52:23;7.57;;;5.65;;
51654;SDS011;37732;53.106;7.030;2023-04-24T06:54:50;8.80;;;5.70;;
51654;SDS011;37732;53.106;7.030;2023-04-24T06:57:15;7.93;;;5.82;;
51654;SDS011;37732;53.106;7.030;2023-04-24T06:59:41;7.97;;;6.13;;
51654;SDS011;37732;53.106;7.030;2023-04-24T07:02:07;7.10;;;5.75;;
51654;SDS011;37732;53.106;7.030;2023-04-24T07:04:33;6.72;;;5.05;;
51654;SDS011;37732;53.106;7.030;2023-04-24T07:06:59;7.00;;;5.50;;
51654;SDS011;37732;53.106;7.030;2023-04-24T07:09:26;7.10;;;4.97;;
51654;SDS011;37732;53.106;7.030;2023-04-24T07:11:52;7.35;;;5.10;;
51654;SDS011;37732;53.106;7.030;2023-04-24T07:14:18;5.78;;;4.30;;
51654;SDS011;37732;53.106;7.030;2023-04-24T07:16:45;6.22;;;5.18;;
51654;SDS011;37732;53.106;7.030;2023-04-24T07:19:12;5.80;;;4.53;;
51654;SDS011;37732;53.106;7.030;2023-04-24T07:21:38;6.47;;;4.35;;
51654;SDS011;37732;53.106;7.030;2023-04-24T07:24:04;9.75;;;5.05;;
51654;SDS011;37732;53.106;7.030;2023-04-24T07:26:30;5.93;;;4.68;;
51654;SDS011;37732;53.106;7.030;2023-04-24T07:28:56;6.43;;;4.38;;
51654;SDS011;37732;53.106;7.030;2023-04-24T07:31:22;7.78;;;5.50;;
51654;SDS011;37732;53.106;7.030;2023-04-24T07:33:48;6.78;;;5.65;;
51654;SDS011;37732;53.106;7.030;2023-04-24T07:36:14;6.07;;;5.10;;
51654;SDS011;37732;53.106;7.030;2023-04-24T07:38:44;7.13;;;6.32;;
51654;SDS011;37732;53.106;7.030;2023-04-24T07:41:11;10.23;;;6.95;;
51654;SDS011;37732;53.106;7.030;2023-04-24T07:43:37;5.25;;;4.30;;
51654;SDS011;37732;53.106;7.030;2023-04-24T07:46:03;5.03;;;3.85;;
51654;SDS011;37732;53.106;7.030;2023-04-24T07:48:29;5.75;;;4.00;;
51654;SDS011;37732;53.106;7.030;2023-04-24T07:50:54;5.63;;;3.70;;
51654;SDS011;37732;53.106;7.030;2023-04-24T07:53:20;5.05;;;3.70;;
51654;SDS011;37732;53.106;7.030;2023-04-24T07:55:46;7.38;;;5.05;;
51654;SDS011;37732;53.106;7.030;2023-04-24T07:58:12;5.43;;;4.50;;
51654;SDS011;37732;53.106;7.030;2023-04-24T08:00:38;5.22;;;3.70;;
51654;SDS011;37732;53.106;7.030;2023-04-24T08:03:03;5.85;;;4.05;;
51654;SDS011;37732;53.106;7.030;2023-04-24T08:05:29;6.13;;;4.72;;
51654;SDS011;37732;53.106;7.030;2023-04-24T08:07:55;5.43;;;3.85;;
51654;SDS011;37732;53.106;7.030;2023-04-24T08:10:22;5.50;;;3.92;;
51654;SDS011;37732;53.106;7.030;2023-04-24T08:12:48;6.97;;;4.97;;
51654;SDS011;37732;53.106;7.030;2023-04-24T08:15:14;19.30;;;10.77;;
51654;SDS011;37732;53.106;7.030;2023-04-24T08:17:40;16.20;;;10.25;;
51654;SDS011;37732;53.106;7.030;2023-04-24T08:20:06;7.93;;;5.70;;
51654;SDS011;37732;53.106;7.030;2023-04-24T08:22:38;6.05;;;4.40;;
51654;SDS011;37732;53.106;7.030;2023-04-24T08:25:07;5.43;;;4.10;;
51654;SDS011;37732;53.106;7.030;2023-04-24T08:27:34;5.55;;;3.35;;
51654;SDS011;37732;53.106;7.030;2023-04-24T08:29:59;4.70;;;3.40;;
51654;SDS011;37732;53.106;7.030;2023-04-24T08:32:25;8.45;;;6.57;;
51654;SDS011;37732;53.106;7.030;2023-04-24T08:34:57;5.72;;;3.67;;
51654;SDS011;37732;53.106;7.030;2023-04-24T08:37:26;6.05;;;4.75;;
51654;SDS011;37732;53.106;7.030;2023-04-24T08:39:52;6.18;;;2.53;;
51654;SDS011;37732;53.106;7.030;2023-04-24T08:42:18;7.78;;;5.35;;
51654;SDS011;37732;53.106;7.030;2023-04-24T08:44:45;7.72;;;3.72;;
51654;SDS011;37732;53.106;7.030;2023-04-24T08:47:11;6.63;;;4.00;;
51654;SDS011;37732;53.106;7.030;2023-04-24T08:49:37;6.32;;;3.80;;
51654;SDS011;37732;53.106;7.030;2023-04-24T08:52:07;8.10;;;4.70;;
51654;SDS011;37732;53.106;7.030;2023-04-24T08:54:36;6.78;;;5.22;;
51654;SDS011;37732;53.106;7.030;2023-04-24T08:57:03;10.90;;;6.60;;
51654;SDS011;37732;53.106;7.030;2023-04-24T08:59:29;9.20;;;7.15;;
51654;SDS011;37732;53.106;7.030;2023-04-24T09:01:56;12.77;;;8.43;;
51654;SDS011;37732;53.106;7.030;2023-04-24T09:04:22;11.68;;;7.97;;
51654;SDS011;37732;53.106;7.030;2023-04-24T09:06:56;11.45;;;8.52;;
51654;SDS011;37732;53.106;7.030;2023-04-24T09:09:23;13.35;;;8.65;;
51654;SDS011;37732;53.106;7.030;2023-04-24T09:11:50;14.77;;;10.82;;
51654;SDS011;37732;53.106;7.030;2023-04-24T09:14:18;15.45;;;10.25;;
51654;SDS011;37732;53.106;7.030;2023-04-24T09:16:45;13.65;;;11.25;;
51654;SDS011;37732;53.106;7.030;2023-04-24T09:19:11;18.42;;;12.38;;
51654;SDS011;37732;53.106;7.030;2023-04-24T09:21:37;16.48;;;11.85;;
51654;SDS011;37732;53.106;7.030;2023-04-24T09:24:05;18.05;;;13.27;;
51654;SDS011;37732;53.106;7.030;2023-04-24T09:26:34;20.95;;;14.45;;
51654;SDS011;37732;53.106;7.030;2023-04-24T09:29:01;19.52;;;15.00;;
51654;SDS011;37732;53.106;7.030;2023-04-24T09:31:28;21.13;;;15.23;;
51654;SDS011;37732;53.106;7.030;2023-04-24T09:33:58;21.83;;;15.05;;
51654;SDS011;37732;53.106;7.030;2023-04-24T09:36:27;24.17;;;15.00;;
51654;SDS011;37732;53.106;7.030;2023-04-24T09:39:01;22.55;;;14.90;;
51654;SDS011;37732;53.106;7.030;2023-04-24T09:41:29;18.13;;;14.18;;
51654;SDS011;37732;53.106;7.030;2023-04-24T09:43:57;18.60;;;12.90;;
51654;SDS011;37732;53.106;7.030;2023-04-24T09:46:29;19.20;;;14.43;;
51654;SDS011;37732;53.106;7.030;2023-04-24T09:49:05;20.75;;;14.98;;
51654;SDS011;37732;53.106;7.030;2023-04-24T09:51:38;21.90;;;12.98;;
51654;SDS011;37732;53.106;7.030;2023-04-24T09:54:05;19.00;;;14.40;;
51654;SDS011;37732;53.106;7.030;2023-04-24T09:56:44;19.85;;;15.10;;
51654;SDS011;37732;53.106;7.030;2023-04-24T09:59:15;19.42;;;15.30;;
51654;SDS011;37732;53.106;7.030;2023-04-24T10:01:42;20.95;;;15.25;;
51654;SDS011;37732;53.106;7.030;2023-04-24T10:04:30;21.35;;;14.25;;
51654;SDS011;37732;53.106;7.030;2023-04-24T10:06:56;21.83;;;15.38;;
51654;SDS011;37732;53.106;7.030;2023-04-24T10:09:24;21.38;;;15.75;;
51654;SDS011;37732;53.106;7.030;2023-04-24T10:11:52;20.60;;;15.20;;
51654;SDS011;37732;53.106;7.030;2023-04-24T10:14:22;16.85;;;13.48;;
51654;SDS011;37732;53.106;7.030;2023-04-24T10:16:50;20.02;;;14.63;;
51654;SDS011;37732;53.106;7.030;2023-04-24T10:19:18;15.38;;;13.10;;
51654;SDS011;37732;53.106;7.030;2023-04-24T10:21:44;16.33;;;14.05;;
51654;SDS011;37732;53.106;7.030;2023-04-24T10:24:14;17.17;;;12.23;;
51654;SDS011;37732;53.106;7.030;2023-04-24T10:26:41;19.15;;;12.77;;
51654;SDS011;37732;53.106;7.030;2023-04-24T10:29:07;17.35;;;12.38;;
51654;SDS011;37732;53.106;7.030;2023-04-24T10:31:36;16.88;;;11.77;;
51654;SDS011;37732;53.106;7.030;2023-04-24T10:34:02;14.30;;;11.05;;
51654;SDS011;37732;53.106;7.030;2023-04-24T10:36:30;16.02;;;12.60;;
51654;SDS011;37732;53.106;7.030;2023-04-24T10:38:57;15.30;;;10.95;;
51654;SDS011;37732;53.106;7.030;2023-04-24T10:41:26;15.27;;;10.45;;
51654;SDS011;37732;53.106;7.030;2023-04-24T10:44:04;19.20;;;11.60;;
51654;SDS011;37732;53.106;7.030;2023-04-24T10:46:30;14.45;;;10.55;;
51654;SDS011;37732;53.106;7.030;2023-04-24T10:48:55;18.25;;;11.23;;
51654;SDS011;37732;53.106;7.030;2023-04-24T10:51:23;18.10;;;10.45;;
51654;SDS011;37732;53.106;7.030;2023-04-24T10:54:27;17.75;;;11.23;;
51654;SDS011;37732;53.106;7.030;2023-04-24T10:59:51;14.18;;;9.68;;
51654;SDS011;37732;53.106;7.030;2023-04-24T11:02:47;14.38;;;8.93;;
51654;SDS011;37732;53.106;7.030;2023-04-24T11:05:16;13.77;;;8.57;;
51654;SDS011;37732;53.106;7.030;2023-04-24T11:10:45;16.85;;;8.65;;
51654;SDS011;37732;53.106;7.030;2023-04-24T11:13:17;10.32;;;6.55;;
51654;SDS011;37732;53.106;7.030;2023-04-24T11:19:01;10.48;;;5.00;;
51654;SDS011;37732;53.106;7.030;2023-04-24T11:21:31;8.88;;;5.43;;
51654;SDS011;37732;53.106;7.030;2023-04-24T11:26:48;12.38;;;5.82;;
51654;SDS011;37732;53.106;7.030;2023-04-24T11:29:17;12.40;;;5.35;;
51654;SDS011;37732;53.106;7.030;2023-04-24T11:31:46;11.52;;;4.95;;
51654;SDS011;37732;53.106;7.030;2023-04-24T11:34:17;8.50;;;4.57;;
51654;SDS011;37732;53.106;7.030;2023-04-24T11:36:44;9.15;;;4.22;;
51654;SDS011;37732;53.106;7.030;2023-04-24T11:39:13;8.23;;;4.00;;
51654;SDS011;37732;53.106;7.030;2023-04-24T11:41:40;12.80;;;5.07;;
51654;SDS011;37732;53.106;7.030;2023-04-24T11:44:06;11.60;;;4.22;;
51654;SDS011;37732;53.106;7.030;2023-04-24T11:46:33;6.75;;;4.32;;
51654;SDS011;37732;53.106;7.030;2023-04-24T11:48:59;7.50;;;4.35;;
51654;SDS011;37732;53.106;7.030;2023-04-24T11:51:28;8.73;;;3.75;;
51654;SDS011;37732;53.106;7.030;2023-04-24T11:53:56;9.57;;;4.85;;
51654;SDS011;37732;53.106;7.030;2023-04-24T11:56:23;9.38;;;3.80;;
51654;SDS011;37732;53.106;7.030;2023-04-24T11:58:51;9.57;;;4.65;;
51654;SDS011;37732;53.106;7.030;2023-04-24T12:01:19;9.55;;;4.25;;
51654;SDS011;37732;53.106;7.030;2023-04-24T12:03:49;6.65;;;4.15;;
51654;SDS011;37732;53.106;7.030;2023-04-24T12:06:16;9.45;;;3.78;;
51654;SDS011;37732;53.106;7.030;2023-04-24T12:08:45;8.45;;;3.75;;
51654;SDS011;37732;53.106;7.030;2023-04-24T12:11:14;8.70;;;3.92;;
51654;SDS011;37732;53.106;7.030;2023-04-24T12:13:41;12.27;;;3.78;;
51654;SDS011;37732;53.106;7.030;2023-04-24T12:16:07;8.02;;;3.80;;
51654;SDS011;37732;53.106;7.030;2023-04-24T12:18:32;7.32;;;3.80;;
51654;SDS011;37732;53.106;7.030;2023-04-24T12:21:14;7.65;;;3.15;;
51654;SDS011;37732;53.106;7.030;2023-04-24T12:23:44;7.05;;;2.85;;
51654;SDS011;37732;53.106;7.030;2023-04-24T12:26:16;7.63;;;3.45;;
51654;SDS011;37732;53.106;7.030;2023-04-24T12:28:45;7.43;;;3.30;;
51654;SDS011;37732;53.106;7.030;2023-04-24T12:31:13;7.40;;;3.03;;
51654;SDS011;37732;53.106;7.030;2023-04-24T12:33:39;6.47;;;2.88;;
51654;SDS011;37732;53.106;7.030;2023-04-24T12:36:05;8.32;;;3.22;;
51654;SDS011;37732;53.106;7.030;2023-04-24T12:38:31;10.65;;;3.15;;
51654;SDS011;37732;53.106;7.030;2023-04-24T12:41:05;8.55;;;3.13;;
51654;SDS011;37732;53.106;7.030;2023-04-24T12:43:35;6.43;;;2.75;;
51654;SDS011;37732;53.106;7.030;2023-04-24T12:46:01;8.82;;;3.28;;
51654;SDS011;37732;53.106;7.030;2023-04-24T12:48:28;6.75;;;2.63;;
51654;SDS011;37732;53.106;7.030;2023-04-24T12:50:56;6.18;;;2.35;;
51654;SDS011;37732;53.106;7.030;2023-04-24T12:53:25;6.00;;;2.40;;
51654;SDS011;37732;53.106;7.030;2023-04-24T12:55:51;6.68;;;2.50;;
51654;SDS011;37732;53.106;7.030;2023-04-24T12:58:19;5.95;;;2.30;;
51654;SDS011;37732;53.106;7.030;2023-04-24T13:00:45;6.93;;;2.28;;
51654;SDS011;37732;53.106;7.030;2023-04-24T13:03:12;8.35;;;2.00;;
51654;SDS011;37732;53.106;7.030;2023-04-24T13:05:38;6.43;;;2.53;;
51654;SDS011;37732;53.106;7.030;2023-04-24T13:08:04;4.38;;;2.00;;
51654;SDS011;37732;53.106;7.030;2023-04-24T13:10:30;4.95;;;2.45;;
51654;SDS011;37732;53.106;7.030;2023-04-24T13:12:56;8.05;;;2.50;;
51654;SDS011;37732;53.106;7.030;2023-04-24T13:15:22;5.60;;;2.30;;
51654;SDS011;37732;53.106;7.030;2023-04-24T13:17:48;5.15;;;2.50;;
51654;SDS011;37732;53.106;7.030;2023-04-24T13:20:13;7.95;;;2.42;;
51654;SDS011;37732;53.106;7.030;2023-04-24T13:22:39;4.60;;;2.38;;
51654;SDS011;37732;53.106;7.030;2023-04-24T13:25:05;7.18;;;2.95;;
51654;SDS011;37732;53.106;7.030;2023-04-24T13:27:32;4.95;;;2.50;;
51654;SDS011;37732;53.106;7.030;2023-04-24T13:29:58;5.05;;;1.98;;
51654;SDS011;37732;53.106;7.030;2023-04-24T13:32:23;6.57;;;2.25;;
51654;SDS011;37732;53.106;7.030;2023-04-24T13:34:50;6.88;;;2.55;;
51654;SDS011;37732;53.106;7.030;2023-04-24T13:37:16;8.48;;;2.10;;
51654;SDS011;37732;53.106;7.030;2023-04-24T13:39:41;4.20;;;1.77;;
51654;SDS011;37732;53.106;7.030;2023-04-24T13:42:07;3.40;;;1.50;;
51654;SDS011;37732;53.106;7.030;2023-04-24T13:44:33;4.57;;;1.88;;
51654;SDS011;37732;53.106;7.030;2023-04-24T13:46:59;9.07;;;2.30;;
51654;SDS011;37732;53.106;7.030;2023-04-24T13:49:25;5.10;;;2.22;;
51654;SDS011;37732;53.106;7.030;2023-04-24T13:51:52;10.23;;;2.28;;
51654;SDS011;37732;53.106;7.030;2023-04-24T13:54:19;5.50;;;2.15;;
51654;SDS011;37732;53.106;7.030;2023-04-24T13:56:44;8.15;;;2.17;;
51654;SDS011;37732;53.106;7.030;2023-04-24T13:59:12;8.00;;;2.42;;
51654;SDS011;37732;53.106;7.030;2023-04-24T14:01:38;6.85;;;2.05;;
51654;SDS011;37732;53.106;7.030;2023-04-24T14:04:04;7.40;;;2.40;;
51654;SDS011;37732;53.106;7.030;2023-04-24T14:06:30;8.02;;;2.55;;
51654;SDS011;37732;53.106;7.030;2023-04-24T14:08:56;5.88;;;2.13;;
51654;SDS011;37732;53.106;7.030;2023-04-24T14:11:22;5.95;;;2.35;;
51654;SDS011;37732;53.106;7.030;2023-04-24T14:13:48;8.55;;;2.70;;
51654;SDS011;37732;53.106;7.030;2023-04-24T14:16:14;9.43;;;2.00;;
51654;SDS011;37732;53.106;7.030;2023-04-24T14:18:39;5.80;;;2.47;;
51654;SDS011;37732;53.106;7.030;2023-04-24T14:21:05;6.57;;;2.03;;
51654;SDS011;37732;53.106;7.030;2023-04-24T14:23:32;6.03;;;1.85;;
51654;SDS011;37732;53.106;7.030;2023-04-24T14:25:57;3.90;;;1.77;;
51654;SDS011;37732;53.106;7.030;2023-04-24T14:28:23;3.10;;;1.40;;
51654;SDS011;37732;53.106;7.030;2023-04-24T14:30:49;4.75;;;1.70;;
51654;SDS011;37732;53.106;7.030;2023-04-24T14:33:16;3.00;;;1.25;;
51654;SDS011;37732;53.106;7.030;2023-04-24T14:35:42;7.70;;;1.80;;
51654;SDS011;37732;53.106;7.030;2023-04-24T14:38:08;2.90;;;1.20;;
51654;SDS011;37732;53.106;7.030;2023-04-24T14:40:34;5.32;;;1.88;;
51654;SDS011;37732;53.106;7.030;2023-04-24T14:43:00;4.40;;;1.45;;
51654;SDS011;37732;53.106;7.030;2023-04-24T14:45:26;5.18;;;1.73;;
51654;SDS011;37732;53.106;7.030;2023-04-24T14:47:52;3.17;;;1.50;;
51654;SDS011;37732;53.106;7.030;2023-04-24T14:50:18;6.72;;;2.08;;
51654;SDS011;37732;53.106;7.030;2023-04-24T14:52:44;6.20;;;1.58;;
51654;SDS011;37732;53.106;7.030;2023-04-24T14:55:10;4.95;;;2.10;;